Harrisville, Indiana
Current Conditions -  °F | °C
As of 5:15 PM on Friday 24 Oct 2014 (Local Time) from KVES Reporting Station
Overcast Overcast  
Wind Chill: 63°   Ceiling: 4000
Heat Index: 63°   Visibility: 10mi
Dew Point: 41°   Wind: 3mph
Humidity: 45%   Direction: 250°WSW
Pressure: 30.01"   Gusts: NA
Location:  40.2091°N, 84.8536°W
Report Text: KVES 242115Z AUTO 25003KT 10SM OVC040 17/05 A3001 RMK AO2
Loading
Personal Weather Stations






























Interactive Weather Map
Tropical Storm Tracking
New forecast layout! Learn more

10-Day Weather Forecast

Advertisements
Track Severe Weather on mobile